Time;durP1;ratioP1;P1;durP2;ratioP2;P2;SDS_P1;SDS_P2;PMS_P1;PMS_P2;Temp;Humidity;BMP_temperature;BMP_pressure;BME280_temperature;BME280_humidity;BME280_pressure;Samples;Min_cycle;Max_cycle;Signal;HPM_P1;HPM_P2
2023/10/13 00:00:36;;;;;;;1.02;0.68;;;;;;;4.50;46.62;96793.88;6270696;28;20056;-67
2023/10/13 00:03:38;;;;;;;1.83;1.23;;;;;;;4.46;47.02;96796.66;6270622;28;20239;-66
2023/10/13 00:06:42;;;;;;;1.52;1.08;;;;;;;4.47;46.63;96778.38;6270690;28;20045;-67
2023/10/13 00:09:44;;;;;;;0.60;0.50;;;;;;;4.45;46.97;96790.59;6270603;28;20049;-67
2023/10/13 00:12:49;;;;;;;1.58;0.77;;;;;;;4.50;46.96;96791.28;6270420;28;20059;-67
2023/10/13 00:19:00;;;;;;;1.35;0.80;;;;;;;4.61;46.28;96785.56;6271322;28;20040;-68
2023/10/13 00:22:08;;;;;;;1.33;0.80;;;;;;;4.75;45.41;96792.81;6270455;28;20052;-66
2023/10/13 00:25:19;;;;;;;1.25;1.15;;;;;;;4.78;45.46;96776.19;6270154;28;20049;-67
2023/10/13 00:28:26;;;;;;;1.65;1.23;;;;;;;4.76;45.19;96778.03;6252442;28;20064;-68
2023/10/13 00:31:33;;;;;;;1.95;1.33;;;;;;;4.76;45.40;96778.88;6270373;28;20057;-67
2023/10/13 00:34:40;;;;;;;2.05;1.40;;;;;;;4.70;45.61;96763.50;6254213;28;20527;-68
2023/10/13 00:37:46;;;;;;;1.67;1.27;;;;;;;4.60;45.71;96751.78;6270885;28;20212;-67
2023/10/13 00:40:52;;;;;;;3.05;1.63;;;;;;;4.74;45.63;96770.28;6252718;28;20500;-69
2023/10/13 00:44:09;;;;;;;4.53;1.00;;;;;;;4.83;45.78;96763.81;6269767;28;20663;-68
2023/10/13 00:50:36;;;;;;;2.40;1.02;;;;;;;4.78;46.23;96753.56;6270362;28;20420;-68
2023/10/13 00:53:41;;;;;;;1.50;1.10;;;;;;;4.79;46.16;96747.47;6290897;28;20209;-67
2023/10/13 00:57:04;;;;;;;1.48;1.10;;;;;;;4.83;45.97;96746.41;6294292;28;20054;-68
2023/10/13 01:00:18;;;;;;;1.77;1.20;;;;;;;4.84;45.84;96749.84;6294354;28;20052;-67
2023/10/13 01:03:26;;;;;;;2.65;1.00;;;;;;;4.84;45.35;96757.69;6294365;28;20051;-67
2023/10/13 01:06:33;;;;;;;2.10;0.90;;;;;;;4.82;46.02;96752.53;6294859;28;20040;-67
2023/10/13 01:09:44;;;;;;;1.27;1.17;;;;;;;4.80;45.54;96749.16;6294847;28;20040;-69
2023/10/13 01:12:52;;;;;;;1.58;1.08;;;;;;;4.79;45.88;96757.06;6293973;28;20059;-67
2023/10/13 01:15:54;;;;;;;1.65;1.20;;;;;;;4.71;45.58;96728.72;6293659;28;20554;-69
2023/10/13 01:18:59;;;;;;;2.13;1.20;;;;;;;4.69;45.71;96736.59;6294327;28;20510;-67
2023/10/13 01:22:04;;;;;;;1.20;0.80;;;;;;;4.81;45.21;96730.00;6294699;28;20483;-67
2023/10/13 01:25:12;;;;;;;2.08;1.27;;;;;;;4.65;45.84;96726.38;6294188;28;20139;-67
2023/10/13 01:28:16;;;;;;;1.25;0.88;;;;;;;4.68;45.54;96718.41;6294587;28;20193;-67
2023/10/13 01:31:25;;;;;;;1.55;1.00;;;;;;;4.79;45.39;96710.13;6276229;28;20067;-67
2023/10/13 01:34:33;;;;;;;2.03;1.35;;;;;;;4.86;45.11;96707.16;6293988;28;20052;-68
2023/10/13 01:37:35;;;;;;;2.15;1.38;;;;;;;4.75;45.20;96704.19;6293425;28;20045;-68
2023/10/13 01:40:36;;;;;;;1.92;1.40;;;;;;;4.67;45.66;96717.56;6293361;28;20063;-67
2023/10/13 01:43:38;;;;;;;2.15;1.40;;;;;;;4.56;45.76;96708.50;6294284;28;20044;-67
2023/10/13 01:46:42;;;;;;;2.50;1.80;;;;;;;4.59;45.83;96718.84;6276025;28;20135;-67
2023/10/13 01:49:50;;;;;;;2.08;1.30;;;;;;;4.77;45.44;96723.22;6293264;28;20060;-67
2023/10/13 01:52:59;;;;;;;2.60;1.38;;;;;;;4.75;45.57;96714.63;6259455;28;20045;-67
2023/10/13 01:56:05;;;;;;;1.50;1.20;;;;;;;4.79;45.63;96716.19;6269048;28;20127;-67
2023/10/13 01:59:09;;;;;;;1.63;1.08;;;;;;;4.81;45.41;96718.72;6268640;28;20051;-68
2023/10/13 02:02:13;;;;;;;2.53;1.65;;;;;;;4.88;45.36;96710.56;6251798;28;20045;-68
2023/10/13 02:05:16;;;;;;;1.52;1.20;;;;;;;4.91;45.46;96704.38;6250634;28;20059;-67
2023/10/13 02:08:24;;;;;;;2.10;1.50;;;;;;;4.79;45.76;96704.91;6268192;28;20049;-67
2023/10/13 02:11:30;;;;;;;3.38;1.65;;;;;;;4.72;46.06;96699.13;6267919;28;20059;-68
2023/10/13 02:14:32;;;;;;;2.33;1.33;;;;;;;4.73;45.92;96695.63;6268111;28;20049;-68
2023/10/13 02:17:41;;;;;;;2.50;1.33;;;;;;;4.67;46.10;96669.78;6268347;28;20048;-68
2023/10/13 02:20:54;;;;;;;2.42;1.80;;;;;;;4.90;45.66;96666.19;6269047;28;20424;-67
2023/10/13 02:24:05;;;;;;;3.00;1.40;;;;;;;4.77;46.01;96680.66;6269046;28;20053;-67
2023/10/13 02:27:13;;;;;;;3.50;1.45;;;;;;;4.74;46.04;96679.03;6268303;28;20045;-67
2023/10/13 02:30:23;;;;;;;1.83;1.30;;;;;;;4.82;45.90;96658.69;6268791;28;20040;-67
2023/10/13 02:33:31;;;;;;;3.65;1.55;;;;;;;4.68;45.88;96676.72;6267685;28;20057;-68
2023/10/13 02:36:51;;;;;;;3.05;1.67;;;;;;;4.85;45.72;96668.97;6268621;28;20044;-67
2023/10/13 02:39:57;;;;;;;2.33;1.73;;;;;;;5.02;45.22;96667.38;6269026;28;20041;-68
2023/10/13 02:43:01;;;;;;;2.55;1.42;;;;;;;4.85;45.70;96648.13;6268624;28;20064;-68
2023/10/13 02:46:04;;;;;;;4.35;1.98;;;;;;;4.89;45.59;96665.31;6268983;28;20048;-67
2023/10/13 02:49:11;;;;;;;2.30;1.33;;;;;;;4.95;45.26;96659.84;6273290;28;20417;-68
2023/10/13 02:52:20;;;;;;;1.88;1.50;;;;;;;5.05;45.40;96675.06;6283721;28;20052;-68
2023/10/13 02:55:28;;;;;;;1.70;1.17;;;;;;;5.23;44.85;96660.31;6297911;28;20048;-67
2023/10/13 02:58:37;;;;;;;2.08;1.05;;;;;;;5.27;44.44;96664.47;6296667;28;20059;-68
2023/10/13 03:01:42;;;;;;;4.47;2.05;;;;;;;5.28;44.60;96677.44;6296602;28;20044;-67
2023/10/13 03:05:09;;;;;;;3.00;1.83;;;;;;;5.30;44.36;96675.59;6296502;28;20048;-66
2023/10/13 03:08:10;;;;;;;1.80;1.13;;;;;;;5.19;45.19;96667.44;6296747;28;20045;-67
2023/10/13 03:11:13;;;;;;;3.63;1.80;;;;;;;5.43;44.20;96683.69;6296731;28;20194;-67
2023/10/13 03:14:27;;;;;;;2.30;1.40;;;;;;;5.45;44.53;96678.41;6297749;28;20044;-68
2023/10/13 03:17:34;;;;;;;3.08;1.70;;;;;;;5.50;44.09;96692.94;6297453;28;20040;-66
2023/10/13 03:20:41;;;;;;;2.25;1.45;;;;;;;5.67;43.37;96667.78;6296768;28;20048;-67
2023/10/13 03:23:47;;;;;;;3.67;1.42;;;;;;;5.62;43.58;96660.16;6296383;28;20508;-66
2023/10/13 03:26:52;;;;;;;1.98;1.77;;;;;;;5.65;43.39;96659.19;6295851;28;20057;-67
2023/10/13 03:29:56;;;;;;;4.97;1.48;;;;;;;5.80;42.89;96668.84;6296846;28;20044;-68
2023/10/13 03:33:01;;;;;;;2.83;1.77;;;;;;;5.76;42.76;96691.66;6296903;28;20044;-68
2023/10/13 03:36:05;;;;;;;4.38;1.67;;;;;;;5.87;42.61;96683.31;6296453;28;20048;-67
2023/10/13 03:39:13;;;;;;;2.67;1.60;;;;;;;5.92;42.32;96677.88;6297069;28;20226;-68
2023/10/13 03:42:21;;;;;;;2.15;1.38;;;;;;;5.97;42.06;96681.13;6296734;28;20041;-66
2023/10/13 03:45:24;;;;;;;3.30;1.45;;;;;;;5.98;41.73;96720.22;6296076;28;20067;-67
2023/10/13 03:48:31;;;;;;;1.40;1.10;;;;;;;6.05;41.65;96671.13;6295641;28;20048;-67
2023/10/13 03:51:38;;;;;;;1.73;1.15;;;;;;;6.05;41.57;96697.25;6296329;28;20533;-67
2023/10/13 03:54:43;;;;;;;3.38;1.15;;;;;;;6.05;41.49;96690.25;6261755;28;20049;-68
2023/10/13 03:57:45;;;;;;;1.58;1.23;;;;;;;5.97;41.82;96694.19;6295323;28;20508;-68
2023/10/13 04:00:49;;;;;;;2.15;1.55;;;;;;;6.09;42.27;96701.44;6278770;28;20052;-68
2023/10/13 04:04:09;;;;;;;1.77;1.52;;;;;;;5.97;42.20;96704.63;6295418;28;20072;-67
2023/10/13 04:07:14;;;;;;;1.50;0.90;;;;;;;6.20;42.21;96699.13;6296333;28;20044;-67
2023/10/13 04:16:52;;;;;;;1.70;1.20;;;;;;;6.15;42.57;96682.81;6295120;28;20052;-68
2023/10/13 04:23:18;;;;;;;2.33;1.40;;;;;;;5.97;42.90;96674.16;6295055;28;20427;-67
2023/10/13 04:26:23;;;;;;;2.55;1.27;;;;;;;5.97;43.12;96660.22;6294917;28;20049;-67
2023/10/13 04:29:46;;;;;;;2.10;1.25;;;;;;;6.10;43.01;96670.91;6295110;28;20048;-66
2023/10/13 04:33:15;;;;;;;2.38;1.50;;;;;;;6.10;42.87;96669.16;6294957;28;20580;-67
2023/10/13 04:39:35;;;;;;;1.75;1.17;;;;;;;6.16;42.38;96679.28;6294592;28;20044;-67
2023/10/13 04:42:50;;;;;;;2.90;1.15;;;;;;;6.19;42.42;96670.44;6295398;28;20090;-68
2023/10/13 04:45:58;;;;;;;2.53;1.58;;;;;;;6.09;42.81;96670.06;6294546;28;20496;-67
2023/10/13 04:49:07;;;;;;;2.60;1.52;;;;;;;6.28;41.84;96667.34;6276599;28;20045;-67
2023/10/13 04:55:24;;;;;;;2.40;1.85;;;;;;;6.40;41.71;96686.81;6293852;28;20041;-68
2023/10/13 05:02:42;;;;;;;2.55;2.35;;;;;;;6.42;41.56;96671.88;6293885;28;20050;-68
2023/10/13 05:48:34;;;;;;;2.97;2.08;;;;;;;6.68;40.81;96708.00;6293199;28;20118;-67
2023/10/13 06:28:45;;;;;;;1.48;0.93;;;;;;;7.43;39.26;96731.91;6298686;28;20115;-67
2023/10/13 06:31:52;;;;;;;1.42;0.90;;;;;;;7.48;38.77;96737.75;6298688;28;20044;-67
2023/10/13 06:35:07;;;;;;;0.85;0.80;;;;;;;7.54;38.35;96750.50;6297581;28;20083;-67
2023/10/13 06:38:20;;;;;;;2.78;1.25;;;;;;;7.54;38.68;96747.03;6297272;28;20048;-67
2023/10/13 06:41:30;;;;;;;3.15;1.00;;;;;;;7.57;38.38;96739.88;6298000;28;20040;-67
2023/10/13 06:44:34;;;;;;;3.40;1.90;;;;;;;7.64;38.42;96764.78;6297596;28;20114;-68
2023/10/13 06:47:44;;;;;;;5.32;2.05;;;;;;;7.70;37.94;96741.78;6297051;28;20427;-67
2023/10/13 06:50:51;;;;;;;3.47;1.77;;;;;;;7.92;37.44;96758.00;6297724;28;20041;-68
2023/10/13 06:53:56;;;;;;;3.38;1.95;;;;;;;7.89;36.61;96737.22;6297392;28;20056;-67
2023/10/13 06:57:03;;;;;;;1.48;1.20;;;;;;;7.87;36.99;96731.25;6297883;28;20135;-67
2023/10/13 07:00:09;;;;;;;3.70;1.15;;;;;;;8.02;36.20;96732.97;6297442;28;20048;-67
2023/10/13 07:03:18;;;;;;;2.85;1.90;;;;;;;8.08;36.12;96731.78;6297366;28;20061;-67
2023/10/13 07:06:23;;;;;;;3.15;1.40;;;;;;;8.14;36.36;96741.06;6296770;28;20056;-67
2023/10/13 07:12:37;;;;;;;2.75;1.63;;;;;;;8.01;36.61;96757.50;6296884;28;20058;-67
2023/10/13 07:15:47;;;;;;;3.22;1.80;;;;;;;8.03;36.46;96742.53;6297769;28;20423;-68
2023/10/13 07:18:52;;;;;;;3.03;1.52;;;;;;;8.15;35.99;96754.06;6296871;28;20048;-67
2023/10/13 07:21:59;;;;;;;2.45;1.60;;;;;;;8.08;36.46;96753.59;6278870;28;20057;-67
2023/10/13 07:25:06;;;;;;;3.70;1.40;;;;;;;7.92;36.65;96751.94;6297013;28;20110;-67
2023/10/13 07:28:08;;;;;;;2.65;1.20;;;;;;;7.88;36.51;96751.25;6296471;28;20056;-68
2023/10/13 07:31:19;;;;;;;1.42;1.17;;;;;;;8.05;35.94;96766.03;6278557;28;20594;-67
2023/10/13 07:34:32;;;;;;;1.70;0.98;;;;;;;7.88;36.15;96746.03;6278729;28;20198;-67
2023/10/13 07:37:33;;;;;;;2.33;1.77;;;;;;;7.91;36.38;96756.31;6296177;28;20230;-67
2023/10/13 07:43:39;;;;;;;1.35;0.70;;;;;;;8.07;36.00;96757.16;6296694;28;20056;-67
2023/10/13 07:46:46;;;;;;;2.95;1.10;;;;;;;8.06;36.32;96758.06;6296392;28;20051;-67
2023/10/13 07:49:52;;;;;;;2.20;1.75;;;;;;;8.05;36.56;96747.69;6296877;28;20415;-67
2023/10/13 07:53:04;;;;;;;1.55;1.27;;;;;;;8.12;36.50;96754.25;6296145;28;20084;-67
2023/10/13 07:56:12;;;;;;;1.73;1.05;;;;;;;7.96;37.16;96741.19;6295924;28;20056;-67
2023/10/13 07:59:21;;;;;;;3.05;0.98;;;;;;;8.09;36.74;96736.94;6295744;28;20060;-67
2023/10/13 08:05:57;;;;;;;1.92;0.88;;;;;;;8.10;36.56;96741.25;6296494;28;20052;-67
2023/10/13 08:09:08;;;;;;;2.60;1.00;;;;;;;7.99;37.01;96738.41;6278362;28;20504;-67
2023/10/13 08:12:12;;;;;;;1.63;0.90;;;;;;;8.10;37.25;96746.50;6278116;28;20330;-67
2023/10/13 08:15:31;;;;;;;1.30;0.70;;;;;;;8.18;36.90;96753.94;6296076;28;20040;-67
2023/10/13 08:18:41;;;;;;;5.47;1.10;;;;;;;8.14;37.35;96738.47;6295963;28;20194;-67
2023/10/13 08:21:51;;;;;;;6.15;2.40;;;;;;;7.94;37.93;96744.84;6295071;28;20103;-67
2023/10/13 08:24:58;;;;;;;3.10;1.42;;;;;;;7.96;37.99;96741.19;6294747;28;20055;-68
2023/10/13 08:28:45;;;;;;;2.67;1.20;;;;;;;8.00;38.12;96734.84;6294722;28;20064;-67
2023/10/13 08:31:29;;;;;;;1.88;0.98;;;;;;;8.06;37.99;96737.09;6294596;28;20052;-67
2023/10/13 08:35:33;;;;;;;2.97;1.95;;;;;;;7.99;38.70;96741.03;6294606;28;20056;-67
2023/10/13 08:38:05;;;;;;;1.60;0.80;;;;;;;8.23;37.56;96730.06;6283365;28;20546;-68
2023/10/13 08:44:32;;;;;;;1.55;1.00;;;;;;;8.16;37.60;96733.97;6294319;28;20056;-67
2023/10/13 08:47:41;;;;;;;2.25;1.30;;;;;;;8.12;37.64;96742.94;6295219;28;20041;-69
2023/10/13 08:53:58;;;;;;;4.93;1.30;;;;;;;8.29;37.53;96746.28;6293952;28;20519;-67
2023/10/13 08:57:49;;;;;;;1.88;0.90;;;;;;;8.38;37.53;96765.91;6294138;28;20052;-67
2023/10/13 09:04:19;;;;;;;2.33;1.45;;;;;;;8.37;37.92;96743.22;6294451;28;20052;-67
2023/10/13 09:07:25;;;;;;;1.58;1.30;;;;;;;8.36;38.04;96738.06;6294908;28;20036;-67
2023/10/13 09:10:49;;;;;;;1.33;0.85;;;;;;;8.47;37.90;96728.69;6293894;28;20139;-68
2023/10/13 09:13:54;;;;;;;2.33;1.08;;;;;;;8.58;37.98;96729.81;6293936;28;20534;-67
2023/10/13 09:17:09;;;;;;;1.27;0.98;;;;;;;8.45;38.82;96727.06;6294744;28;20056;-68
2023/10/13 09:23:44;;;;;;;2.67;1.13;;;;;;;8.53;39.39;96723.06;6294509;28;20040;-67
2023/10/13 09:26:49;;;;;;;2.65;1.55;;;;;;;8.57;39.67;96722.88;6293867;28;20117;-67
2023/10/13 09:33:36;;;;;;;1.95;1.13;;;;;;;8.81;39.56;96724.06;6294326;28;20086;-68
2023/10/13 09:36:47;;;;;;;2.22;1.30;;;;;;;8.72;39.93;96717.56;6294118;28;20056;-68
2023/10/13 09:40:05;;;;;;;2.15;1.52;;;;;;;8.92;39.65;96723.41;6294058;28;20041;-68
2023/10/13 09:43:17;;;;;;;2.35;1.50;;;;;;;8.94;40.17;96705.75;6294032;28;20526;-68
2023/10/13 09:46:23;;;;;;;0.82;0.82;;;;;;;9.04;40.14;96711.31;6294441;28;20419;-67
2023/10/13 09:49:44;;;;;;;2.08;0.95;;;;;;;8.84;40.54;96730.91;6294248;28;20040;-67
2023/10/13 09:52:46;;;;;;;3.17;1.40;;;;;;;8.79;40.64;96720.66;6293338;28;20051;-67
2023/10/13 09:56:13;;;;;;;2.95;1.55;;;;;;;8.76;40.63;96718.22;6292182;28;20048;-67
2023/10/13 09:59:22;;;;;;;1.30;1.20;;;;;;;8.67;40.72;96743.22;6293916;28;20052;-67
2023/10/13 10:02:26;;;;;;;1.98;1.30;;;;;;;8.66;40.73;96756.44;6293253;28;20075;-67
2023/10/13 10:05:34;;;;;;;4.03;1.20;;;;;;;8.69;40.60;96740.50;6293042;28;20125;-67
2023/10/13 10:08:50;;;;;;;2.65;1.20;;;;;;;8.70;40.55;96760.56;6293865;28;20040;-67
2023/10/13 10:12:25;;;;;;;1.85;1.27;;;;;;;8.70;40.72;96745.66;6293334;28;20049;-67
2023/10/13 10:15:35;;;;;;;3.75;2.08;;;;;;;8.56;41.41;96736.94;6293285;28;20451;-67
2023/10/13 10:18:36;;;;;;;1.58;1.08;;;;;;;8.63;41.47;96746.13;6293480;28;20406;-68
2023/10/13 10:21:41;;;;;;;1.42;1.10;;;;;;;8.50;41.59;96723.25;6292891;28;20137;-67
2023/10/13 10:24:55;;;;;;;3.03;1.45;;;;;;;8.42;42.19;96735.13;6292961;28;20056;-67
2023/10/13 10:28:00;;;;;;;2.50;1.40;;;;;;;8.49;42.21;96725.94;6292838;28;20638;-67
2023/10/13 10:31:12;;;;;;;1.63;1.08;;;;;;;8.54;42.25;96729.16;6292754;28;20052;-67
2023/10/13 10:34:18;;;;;;;4.93;1.70;;;;;;;8.49;42.70;96731.19;6290348;28;20076;-68
2023/10/13 10:37:34;;;;;;;3.30;1.63;;;;;;;8.65;42.48;96718.03;6293650;28;20044;-67
2023/10/13 10:40:57;;;;;;;2.50;1.20;;;;;;;8.54;43.18;96719.50;6293465;28;20047;-67
2023/10/13 10:44:08;;;;;;;1.88;1.27;;;;;;;8.58;43.47;96711.44;6292712;28;20071;-66
2023/10/13 10:47:36;;;;;;;1.45;1.33;;;;;;;8.56;43.88;96715.97;6292979;28;20049;-67
2023/10/13 10:50:39;;;;;;;2.28;0.95;;;;;;;8.53;43.76;96727.47;6293478;28;20397;-66
2023/10/13 10:53:43;;;;;;;3.33;1.15;;;;;;;8.63;43.62;96728.59;6291925;28;20044;-67
2023/10/13 10:56:52;;;;;;;4.75;1.60;;;;;;;8.52;43.16;96720.50;6293234;28;20041;-67
2023/10/13 11:00:14;;;;;;;3.00;1.52;;;;;;;8.45;43.40;96713.97;6293161;28;20123;-67
2023/10/13 11:03:18;;;;;;;1.63;1.30;;;;;;;8.44;43.60;96702.63;6293120;28;20055;-67
2023/10/13 11:06:24;;;;;;;3.42;1.20;;;;;;;8.31;43.67;96706.88;6292145;28;20045;-67
2023/10/13 11:12:33;;;;;;;1.10;1.00;;;;;;;8.18;44.21;96713.75;6296886;28;20562;-68
2023/10/13 11:15:47;;;;;;;1.83;1.38;;;;;;;8.02;44.64;96705.94;6296265;28;20058;-68
2023/10/13 11:19:05;;;;;;;2.92;1.02;;;;;;;8.07;44.66;96746.69;6297193;28;20052;-67
2023/10/13 11:25:37;;;;;;;1.83;1.13;;;;;;;7.94;45.31;96726.50;6296059;28;20041;-68
2023/10/13 11:28:50;;;;;;;10.13;3.72;;;;;;;8.00;45.56;96742.69;6295819;28;20053;-67
2023/10/13 11:31:59;;;;;;;3.90;1.88;;;;;;;7.98;45.62;96714.91;6296246;28;20045;-67
2023/10/13 11:35:09;;;;;;;1.75;1.50;;;;;;;7.86;45.91;96711.19;6296907;28;20520;-67
2023/10/13 11:38:34;;;;;;;3.60;1.60;;;;;;;7.81;46.51;96713.22;6295847;28;20048;-67
2023/10/13 11:41:50;;;;;;;4.13;1.15;;;;;;;8.02;46.41;96691.06;6296836;28;20127;-67
2023/10/13 11:45:28;;;;;;;1.77;1.33;;;;;;;8.01;46.58;96718.22;6296796;28;20040;-67
2023/10/13 11:48:17;;;;;;;3.70;1.63;;;;;;;7.94;46.65;96703.75;6295856;28;20049;-68
2023/10/13 11:51:24;;;;;;;3.00;1.90;;;;;;;7.96;46.67;96720.25;6279165;28;20953;-67
2023/10/13 11:54:29;;;;;;;1.05;0.73;;;;;;;8.04;46.47;96715.41;6296563;28;20508;-68
2023/10/13 11:57:33;;;;;;;1.85;1.30;;;;;;;8.03;46.61;96708.47;6295763;28;20194;-67
2023/10/13 12:07:27;;;;;;;2.33;0.80;;;;;;;8.37;45.32;96714.38;6295214;28;20051;-68
2023/10/13 12:10:33;;;;;;;2.75;1.05;;;;;;;8.47;44.85;96715.56;6295790;28;20555;-67
2023/10/13 12:13:40;;;;;;;2.17;1.70;;;;;;;8.35;45.14;96732.00;6296069;28;20126;-67
2023/10/13 12:16:50;;;;;;;4.80;1.38;;;;;;;8.31;44.88;96727.84;6294973;28;20057;-67
2023/10/13 12:19:59;;;;;;;3.08;1.80;;;;;;;8.32;44.79;96737.38;6295517;28;20064;-68
2023/10/13 12:23:15;;;;;;;1.88;1.30;;;;;;;8.33;44.53;96715.50;6295809;28;20044;-67
2023/10/13 12:26:19;;;;;;;2.88;1.88;;;;;;;8.27;44.61;96716.69;6295839;28;20057;-68
2023/10/13 12:29:22;;;;;;;3.97;2.10;;;;;;;8.17;44.87;96726.00;6295095;28;20052;-66
2023/10/13 12:32:30;;;;;;;4.30;1.38;;;;;;;8.10;44.91;96717.66;6295376;28;20048;-68
2023/10/13 12:35:44;;;;;;;2.45;1.10;;;;;;;8.13;44.88;96715.81;6294442;28;20044;-67
2023/10/13 12:51:56;;;;;;;2.45;1.60;;;;;;;7.97;45.25;96715.84;6294319;28;20149;-67
2023/10/13 12:58:04;;;;;;;3.38;1.75;;;;;;;7.85;45.63;96725.25;6293933;28;20052;-67
2023/10/13 13:01:06;;;;;;;3.00;1.80;;;;;;;7.75;45.90;96709.19;6294408;28;20052;-68
2023/10/13 13:04:34;;;;;;;3.08;1.80;;;;;;;7.87;45.88;96723.38;6295025;28;20076;-67
2023/10/13 13:07:46;;;;;;;1.13;1.02;;;;;;;7.88;46.09;96717.19;6293573;28;20052;-66
2023/10/13 13:10:49;;;;;;;2.45;1.45;;;;;;;7.91;45.90;96709.16;6293551;28;20496;-67
2023/10/13 13:13:53;;;;;;;4.35;1.25;;;;;;;7.83;46.55;96700.91;6294351;28;20052;-68
2023/10/13 13:17:05;;;;;;;2.22;1.73;;;;;;;7.82;46.60;96699.22;6294523;28;20060;-66
2023/10/13 13:20:11;;;;;;;3.17;1.20;;;;;;;7.68;46.64;96691.28;6294478;28;20051;-67
2023/10/13 13:23:15;;;;;;;1.67;1.20;;;;;;;7.64;47.13;96677.50;6294480;28;20071;-66
2023/10/13 13:26:17;;;;;;;4.22;1.40;;;;;;;7.48;47.00;96672.31;6293912;28;20071;-67
2023/10/13 13:29:19;;;;;;;2.10;1.08;;;;;;;7.47;46.64;96662.75;6293484;28;20051;-66
2023/10/13 13:32:28;;;;;;;3.72;1.90;;;;;;;7.46;46.80;96649.75;6292730;28;20041;-67
2023/10/13 13:35:34;;;;;;;2.88;1.45;;;;;;;7.60;46.01;96658.50;6294385;28;20036;-68
2023/10/13 13:38:41;;;;;;;1.75;0.80;;;;;;;7.54;46.27;96622.22;6294472;28;20045;-67
2023/10/13 13:41:44;;;;;;;3.35;1.40;;;;;;;7.70;45.64;96660.59;6293747;28;20048;-68
2023/10/13 13:44:51;;;;;;;2.53;1.55;;;;;;;7.64;45.71;96670.53;6293065;28;20045;-67
2023/10/13 13:47:55;;;;;;;4.55;2.30;;;;;;;7.56;45.53;96657.00;6293391;28;20093;-67
2023/10/13 13:51:03;;;;;;;;;;;;;;;7.61;45.34;96652.38;6293797;28;20056;-67
2023/10/13 13:54:07;;;;;;;5.15;1.52;;;;;;;7.50;45.59;96662.59;6268585;28;20035;-67
2023/10/13 13:57:08;;;;;;;3.08;1.70;;;;;;;7.44;45.49;96673.38;6268811;28;20179;-68
2023/10/13 14:00:18;;;;;;;2.67;1.30;;;;;;;7.35;45.21;96647.72;6269123;28;20037;-67
2023/10/13 14:03:33;;;;;;;0.85;0.80;;;;;;;7.42;45.60;96675.28;6268161;28;20049;-68
2023/10/13 14:06:35;;;;;;;1.10;0.95;;;;;;;7.41;45.75;96689.25;6268596;28;20516;-68
2023/10/13 14:09:40;;;;;;;4.00;2.33;;;;;;;7.40;45.90;96703.28;6268279;28;20057;-67
2023/10/13 14:12:41;;;;;;;2.95;1.30;;;;;;;7.37;46.13;96693.00;6268344;28;20052;-68
2023/10/13 14:15:46;;;;;;;1.70;1.10;;;;;;;7.50;46.16;96680.06;6268762;28;20088;-67
2023/10/13 14:18:48;;;;;;;2.30;1.27;;;;;;;7.57;46.37;96679.63;6267727;28;20049;-67
2023/10/13 14:21:53;;;;;;;2.42;1.25;;;;;;;7.40;47.07;96658.78;6268269;28;20052;-68
2023/10/13 14:24:55;;;;;;;2.40;0.80;;;;;;;7.34;47.66;96643.44;6268090;28;20049;-67
2023/10/13 14:27:58;;;;;;;3.22;1.38;;;;;;;7.45;47.71;96638.44;6268051;28;20432;-68
2023/10/13 14:31:09;;;;;;;4.38;1.50;;;;;;;7.29;48.19;96642.84;6267625;28;20064;-67
2023/10/13 14:34:11;;;;;;;4.05;1.20;;;;;;;7.22;48.46;96620.53;6267923;28;20049;-68
2023/10/13 14:37:26;;;;;;;3.88;1.33;;;;;;;7.20;48.51;96623.25;6268573;28;20048;-67
2023/10/13 14:40:29;;;;;;;5.53;1.08;;;;;;;7.08;48.68;96614.31;6267395;28;20041;-67
2023/10/13 14:43:33;;;;;;;1.65;1.02;;;;;;;7.04;48.66;96612.78;6271787;28;20064;-67
2023/10/13 14:46:40;;;;;;;2.83;1.30;;;;;;;6.95;49.05;96600.22;6273108;28;20049;-67
2023/10/13 14:49:47;;;;;;;2.92;1.23;;;;;;;7.08;48.67;96598.63;6273255;28;20045;-68
2023/10/13 14:52:51;;;;;;;10.75;1.50;;;;;;;7.06;48.27;96599.63;6287671;28;20048;-67
2023/10/13 14:55:55;;;;;;;3.67;1.17;;;;;;;6.92;48.25;96629.16;6297423;28;20048;-67
2023/10/13 14:58:56;;;;;;;3.47;1.70;;;;;;;7.04;47.89;96628.47;6297175;28;20063;-68
2023/10/13 15:02:01;;;;;;;3.20;1.42;;;;;;;7.14;47.75;96634.91;6296769;28;20455;-67
2023/10/13 15:05:05;;;;;;;1.65;1.00;;;;;;;7.20;47.28;96655.50;6296944;28;20052;-67
2023/10/13 15:08:11;;;;;;;2.47;1.13;;;;;;;7.26;47.50;96643.00;6297705;28;20040;-67
2023/10/13 15:11:20;;;;;;;2.53;0.95;;;;;;;7.34;47.26;96651.28;6297252;28;20045;-68
2023/10/13 15:14:24;;;;;;;3.65;1.13;;;;;;;7.38;47.61;96624.00;6297529;28;20044;-68
2023/10/13 15:17:29;;;;;;;1.67;0.90;;;;;;;7.41;47.11;96636.91;6297315;28;20040;-68
2023/10/13 15:20:39;;;;;;;1.58;1.00;;;;;;;7.52;46.72;96644.16;6297390;28;20048;-67
2023/10/13 15:23:44;;;;;;;1.75;1.10;;;;;;;7.42;46.75;96660.41;6297452;28;20048;-67
2023/10/13 15:26:48;;;;;;;2.20;0.90;;;;;;;7.54;46.50;96637.91;6297302;28;20127;-67
2023/10/13 15:29:52;;;;;;;1.92;1.02;;;;;;;7.43;47.08;96635.06;6297117;28;20044;-67
2023/10/13 15:32:57;;;;;;;3.47;1.00;;;;;;;7.50;46.73;96651.25;6295942;28;20135;-67
2023/10/13 15:35:58;;;;;;;2.25;1.02;;;;;;;7.48;47.25;96640.88;6295638;28;20492;-69
2023/10/13 15:39:00;;;;;;;1.52;1.23;;;;;;;7.52;46.78;96631.91;6295943;28;20052;-68
2023/10/13 15:42:05;;;;;;;2.05;1.20;;;;;;;7.42;47.43;96649.94;6296152;28;20048;-68
2023/10/13 15:45:16;;;;;;;1.67;0.98;;;;;;;7.45;47.19;96638.44;6296088;28;20139;-67
2023/10/13 15:48:22;;;;;;;1.92;0.75;;;;;;;7.49;47.16;96644.34;6296897;28;20044;-67
2023/10/13 15:51:29;;;;;;;1.70;1.00;;;;;;;7.69;46.90;96640.59;6297013;28;20762;-68
2023/10/13 15:54:31;;;;;;;1.90;1.50;;;;;;;7.69;46.86;96640.59;6295476;28;20037;-68
2023/10/13 15:57:37;;;;;;;2.10;1.27;;;;;;;7.69;46.77;96624.88;6296578;28;20114;-67
2023/10/13 16:00:41;;;;;;;3.35;1.23;;;;;;;7.71;46.81;96623.03;6295452;28;20083;-67
2023/10/13 16:03:43;;;;;;;;;;;;;;;7.84;46.54;96613.50;6295791;28;20130;-68
2023/10/13 16:06:52;;;;;;;;;;;;;;;7.76;47.12;96626.25;6296714;28;20423;-68
2023/10/13 16:09:59;;;;;;;4.05;0.90;;;;;;;7.72;47.69;96656.13;6296509;28;20454;-68
2023/10/13 16:13:05;;;;;;;0.85;0.63;;;;;;;7.85;47.83;96589.03;6295557;28;20051;-68
2023/10/13 16:16:15;;;;;;;1.48;1.10;;;;;;;7.83;48.18;96596.97;6295557;28;20579;-68
2023/10/13 16:19:23;;;;;;;2.05;0.98;;;;;;;7.59;48.91;96599.22;6295981;28;20040;-69
2023/10/13 16:22:32;;;;;;;2.67;0.82;;;;;;;7.67;49.09;96587.47;6295286;28;20137;-68
2023/10/13 16:25:33;;;;;;;1.92;1.10;;;;;;;7.63;49.87;96624.28;6295358;28;20437;-68
2023/10/13 16:28:38;;;;;;;2.88;1.25;;;;;;;7.43;51.50;96614.13;6295126;28;20041;-68
2023/10/13 16:31:45;;;;;;;1.10;1.00;;;;;;;7.03;53.02;96600.63;6295117;28;20422;-67
2023/10/13 16:34:49;;;;;;;3.22;0.80;;;;;;;6.86;53.96;96629.50;6295784;28;20139;-67
2023/10/13 16:37:56;;;;;;;1.52;0.80;;;;;;;7.03;53.07;96624.19;6295709;28;20037;-68
2023/10/13 16:40:57;;;;;;;1.25;1.08;;;;;;;7.15;52.82;96636.59;6294880;28;20049;-69
2023/10/13 16:44:06;;;;;;;2.35;1.05;;;;;;;7.18;52.92;96646.88;6295511;28;20036;-68
2023/10/13 16:47:15;;;;;;;2.63;1.00;;;;;;;7.27;52.56;96655.16;6295412;28;20135;-68
2023/10/13 16:50:17;;;;;;;1.67;1.00;;;;;;;7.43;52.57;96653.38;6294407;28;20052;-68
2023/10/13 16:53:23;;;;;;;1.25;0.80;;;;;;;7.39;52.57;96660.56;6294902;28;20064;-68
2023/10/13 16:56:27;;;;;;;2.47;1.40;;;;;;;7.57;52.11;96679.63;6294631;28;20048;-68
2023/10/13 16:59:32;;;;;;;5.38;0.95;;;;;;;7.63;52.28;96681.06;6295294;28;20040;-68
2023/10/13 17:02:34;;;;;;;1.10;0.90;;;;;;;7.56;52.81;96677.97;6293957;28;20048;-68
2023/10/13 17:05:45;;;;;;;1.10;0.80;;;;;;;7.62;52.84;96676.78;6294757;28;20036;-69
2023/10/13 17:08:52;;;;;;;1.63;1.10;;;;;;;7.43;53.42;96687.41;6293883;28;20110;-68
2023/10/13 17:11:54;;;;;;;1.67;0.60;;;;;;;7.58;53.29;96670.00;6294681;28;20040;-68
2023/10/13 17:14:57;;;;;;;2.38;0.90;;;;;;;7.50;53.71;96673.06;6276977;28;20047;-68
2023/10/13 17:18:05;;;;;;;3.30;0.85;;;;;;;7.49;53.94;96655.66;6294721;28;20040;-68
2023/10/13 17:21:31;;;;;;;1.88;1.02;;;;;;;7.50;54.65;96687.91;6294224;28;20511;-67
2023/10/13 17:24:37;;;;;;;1.52;1.02;;;;;;;7.55;54.80;96671.00;6294415;28;20134;-67
2023/10/13 17:27:40;;;;;;;2.50;1.02;;;;;;;7.51;54.88;96645.94;6294574;28;20041;-67
2023/10/13 17:30:49;;;;;;;2.03;1.02;;;;;;;7.42;55.17;96622.91;6294450;28;20044;-67
2023/10/13 17:33:50;;;;;;;1.00;0.68;;;;;;;7.51;55.65;96625.00;6293680;28;20053;-67
2023/10/13 17:36:58;;;;;;;2.25;1.20;;;;;;;7.26;56.38;96616.84;6294538;28;20048;-67